Latest Coastal Weather Observations for Mackay

IDQ60701

Issued at 2:35 am EST Sunday 23 November 2014 (issued every 10 minutes, with the page automatically refreshed every 10 minutes)

About coastal observations | Map of coastal stations | Coastal observations for QLD | Marine services | Other Formats
Station Details ID: 033119 Name: MACKAY M.O Lat: -21.12 Lon: 149.22 Height: 30.26 m
Data from the previous 72 hours. | See also: Recent months at Mackay
Date/Time
EST
Temp

°C
Wind Pressure Rain
since 9am
mm
Weather Cloud Vis
km
Sea
Height
m
Swell
Dir
 
Speed
knots
Gust
knots
hPa Trend Height
m
Period
s
Dir
23/02:30am 25.0 NNE 5 9 1013.6 - 0.0 - Partly cloudy - - - - -
23/02:00am 24.8 N 5 8 1013.7 - 0.0 - Partly cloudy - - - - -
23/01:30am 24.9 N 4 6 1013.8 - 0.0 - Partly cloudy - - - - -
23/01:00am 25.1 N 5 8 1014.0 - 0.0 - - - - - - -
23/12:30am 25.0 N 4 8 1014.3 - 0.0 - Partly cloudy - - - - -
23/12:00am 25.1 NNE 4 8 1014.8 - 0.0 - Partly cloudy - - - - -
 
Date/Time
EST
Temp

°C
Wind Pressure Rain
since 9am
mm
Weather Cloud Vis
km
Sea
Height
m
Swell
Dir
 
Speed
knots
Gust
knots
hPa Trend Height
m
Period
s
Dir
22/11:30pm 25.3 N 4 6 1015.0 - 0.0 - Partly cloudy - - - - -
22/11:00pm 25.3 NNE 5 8 1015.0 - 0.0 - Partly cloudy - - - - -
22/10:30pm 25.4 NNE 5 10 1015.1 - 0.0 - - - - - - -
22/10:00pm 25.4 NNE 5 9 1015.0 - 0.0 - - - - - - -
22/09:30pm 25.4 NNE 5 9 1014.9 - 0.0 - Partly cloudy - - - - -
22/09:00pm 25.5 NNE 5 8 1014.6 R 0.0 - - - - - - -
22/08:30pm 25.7 NNE 6 12 1014.2 - 0.0 - - - - - - -
22/08:00pm 25.8 NNE 6 11 1014.0 - 0.0 - - - - - - -
22/07:30pm 26.0 NNE 7 12 1013.8 - 0.0 - - - - - - -
22/07:00pm 26.1 NNE 7 13 1013.3 - 0.0 - - - - - - -
22/06:30pm 26.2 NNE 6 10 1012.9 - 0.0 - - - - - - -
22/06:00pm 26.8 NNE 5 11 1012.6 F 0.0 - - - - - - -
22/05:30pm 27.8 NE 7 11 1012.4 - 0.0 - - - - - - -
22/05:00pm 28.6 NE 6 11 1012.2 - 0.0 - Mostly clear 10 - - - -
22/04:30pm 28.9 NE 6 11 1012.0 - 0.0 - Mostly clear 10 - - - -
22/04:00pm 29.4 NNE 7 12 1012.0 - 0.0 - Mostly clear 10 - - - -
22/03:30pm 29.7 NE 8 11 1012.0 - 0.0 - Mostly clear 10 - - - -
22/03:00pm 30.7 NE 7 12 1012.4 F 0.0 Fine Mostly cloudy 25 - - - -
22/02:30pm 30.5 NE 6 10 1012.7 - 0.0 - Mostly clear 10 - - - -
22/02:00pm 31.0 NE 7 11 1013.1 - 0.0 - Mostly clear 10 - - - -
22/01:30pm 30.5 NE 7 11 1013.6 - 0.0 - Mostly clear 10 - - - -
22/01:00pm 30.1 NE 7 11 1014.0 - 0.0 - Mostly clear 10 - - - -
22/12:30pm 30.8 NE 6 11 1014.3 - 0.0 - Mostly clear 10 - - - -
22/12:00pm 31.4 NE 7 12 1014.6 R 0.0 Fine Mostly clear 25 - - - -
22/11:30am 30.7 NNE 7 11 1014.9 - 0.0 - Mostly clear 10 - - - -
22/11:00am 30.7 NNE 7 12 1015.3 - 0.0 - Mostly clear 10 - - - -
22/10:30am 31.4 NNE 7 11 1015.5 - 0.0 - Mostly clear 10 - - - -
22/10:00am 30.4 NE 7 11 1015.6 - 0.0 - Mostly clear 10 - - - -
22/09:30am 30.3 NNE 7 11 1015.6 - 0.0 - Mostly clear 10 - - - -
22/09:00am 30.8 NNE 6 10 1015.5 S 0.0 Fine Mostly clear 25 - - - -
22/08:30am 29.3 N 7 11 1015.4 - 0.0 - Mostly clear 10 - - - -
22/08:00am 28.7 N 6 11 1015.2 - 0.0 - Mostly clear 10 - - - -
22/07:30am 28.5 N 5 10 1015.3 - 0.0 - Mostly clear 10 - - - -
22/07:00am 27.1 N 5 8 1015.1 - 0.0 - Partly cloudy 10 - - - -
22/06:30am 26.3 NW 4 6 1014.5 - 0.0 - Partly cloudy 10 - - - -
22/06:00am 25.3 N 5 7 1014.2 R 0.0 Fine Partly cloudy 25 - - - -
22/05:30am 24.5 N 5 9 1013.6 - 0.0 - - - - - - -
22/05:00am 24.0 N 4 6 1013.4 - 0.0 - - - - - - -
22/04:30am 24.3 N 4 7 1013.1 - 0.0 - - - - - - -
22/04:00am 24.5 N 4 7 1012.9 - 0.0 - - - - - - -
22/03:30am 24.8 N 7 12 1012.4 - 0.0 - - - - - - -
22/03:00am 24.7 N 5 8 1012.4 - 0.0 - Partly cloudy - - - - -
22/02:30am 24.8 N 4 6 1012.6 - 0.0 - Partly cloudy - - - - -
22/02:00am 24.7 N 5 8 1012.8 - 0.0 - Partly cloudy - - - - -
22/01:30am 24.8 N 5 9 1013.1 - 0.0 - Partly cloudy - - - - -
22/01:00am 24.8 N 5 8 1013.3 - 0.0 - Partly cloudy - - - - -
22/12:30am 24.8 N 6 8 1013.5 - 0.0 - Partly cloudy - - - - -
22/12:00am 24.9 N 6 9 1014.1 - 0.0 - Mostly clear - - - - -
 
Date/Time
EST
Temp

°C
Wind Pressure Rain
since 9am
mm
Weather Cloud Vis
km
Sea
Height
m
Swell
Dir
 
Speed
knots
Gust
knots
hPa Trend Height
m
Period
s
Dir
21/11:30pm 25.1 N 6 9 1014.4 - 0.0 - Partly cloudy - - - - -
21/11:00pm 25.3 N 6 9 1014.6 - 0.0 - Partly cloudy - - - - -
21/10:30pm 25.4 N 6 11 1014.4 - 0.0 - Partly cloudy - - - - -
21/10:00pm 25.5 N 7 12 1014.2 - 0.0 - Partly cloudy - - - - -
21/09:30pm 25.5 N 6 12 1014.4 - 0.0 - Partly cloudy - - - - -
21/09:00pm 25.5 N 6 9 1014.2 R 0.0 - Mostly clear - - - - -
21/08:30pm 25.6 N 7 11 1013.7 - 0.0 - - - - - - -
21/08:00pm 25.6 N 6 9 1013.4 - 0.0 - - - - - - -
21/07:30pm 25.8 N 7 11 1013.0 - 0.0 - - - - - - -
21/07:00pm 26.0 N 7 13 1012.7 - 0.0 - - - - - - -
21/06:30pm 26.2 N 7 12 1012.4 - 0.0 - - - - - - -
21/06:00pm 26.7 N 8 12 1012.3 F 0.0 - - - - - - -
21/05:30pm 27.3 NNE 8 13 1012.0 - 0.0 - - - - - - -
21/05:00pm 28.3 N 7 12 1012.0 - 0.0 - Mostly clear 10 - - - -
21/04:30pm 28.5 NNE 8 13 1011.9 - 0.0 - Mostly clear 10 - - - -
21/04:00pm 29.4 NNE 7 12 1011.8 - 0.0 - Mostly clear 10 - - - -
21/03:30pm 30.1 NNE 8 13 1011.7 - 0.0 - Mostly clear 10 - - - -
21/03:00pm 29.8 NNE 8 13 1012.0 F 0.0 Fine Mostly clear 25 - - - -
21/02:30pm 30.6 NNE 8 12 1012.6 - 0.0 - Mostly clear 10 - - - -
21/02:00pm 30.3 NNE 8 14 1013.0 - 0.0 - Mostly clear 10 - - - -
21/01:30pm 31.5 NNE 8 13 1013.4 - 0.0 - Mostly clear 10 - - - -
21/01:00pm 31.2 NNE 8 14 1013.7 - 0.0 - Mostly clear 10 - - - -
21/12:30pm 31.5 NNE 7 13 1013.8 - 0.0 - Mostly clear 10 - - - -
21/12:00pm 31.3 NNE 9 13 1014.1 F 0.0 Fine Mostly clear 30 - - - -
21/11:30am 30.9 NE 8 13 1014.6 - 0.0 - Mostly clear 10 - - - -
21/11:00am 31.3 NNE 7 13 1015.1 - 0.0 - Partly cloudy - - - - -
21/10:30am 31.4 NNE 8 12 1015.3 - 0.0 - - - - - - -
21/10:00am 31.0 NNE 8 12 1015.5 - 0.0 - Mostly clear 10 - - - -
21/09:30am 30.1 NNE 8 13 1015.7 - 0.0 - Mostly clear 10 - - - -
21/09:00am 29.9 NNE 7 11 1016.1 R 0.0 Fine Mostly clear 25 - - - -
21/08:30am 29.5 NNE 7 12 1016.1 - 0.0 - Mostly clear 10 - - - -
21/08:00am 28.8 N 6 10 1016.1 - 0.0 - Mostly clear 10 - - - -
21/07:30am 27.9 N 6 10 1015.9 - 0.0 - Mostly clear 10 - - - -
21/07:00am 26.3 N 6 10 1015.6 - 0.0 - Mostly clear 10 - - - -
21/06:30am 25.4 N 6 9 1015.2 - 0.0 - Mostly clear 10 - - - -
21/06:00am 25.5 N 6 10 1014.6 R 0.0 Fine Mostly clear 20 - - - -
21/05:30am 24.6 N 4 6 1014.5 - 0.0 - Partly cloudy - - - - -
21/05:00am 24.5 N 6 9 1014.1 - 0.0 - Partly cloudy - - - - -
21/04:30am 24.7 N 5 9 1013.8 - 0.0 - Partly cloudy - - - - -
21/04:00am 24.8 N 6 11 1013.6 - 0.0 - Partly cloudy - - - - -
21/03:30am 24.7 NNE 6 11 1013.4 - 0.0 - Partly cloudy - - - - -
21/03:00am 24.7 NNE 6 9 1013.3 - 0.0 - Mostly clear - - - - -
21/02:30am 24.8 NNE 6 11 1013.5 - 0.0 - Partly cloudy - - - - -
21/02:00am 24.8 NNE 8 13 1013.6 - 0.0 - - - - - - -
21/01:30am 24.8 NNE 7 12 1013.9 - 0.0 - Partly cloudy - - - - -
21/01:00am 24.9 NNE 7 11 1014.2 - 0.0 - Partly cloudy - - - - -
21/12:30am 25.0 NNE 6 10 1014.6 - 0.0 - Partly cloudy - - - - -
21/12:00am 25.0 NNE 6 9 1015.1 - 0.0 - - - - - - -
 
Date/Time
EST
Temp

°C
Wind Pressure Rain
since 9am
mm
Weather Cloud Vis
km
Sea
Height
m
Swell
Dir
 
Speed
knots
Gust
knots
hPa Trend Height
m
Period
s
Dir
20/11:30pm 25.2 NNE 5 8 1015.5 - 0.0 - Partly cloudy - - - - -
20/11:00pm 25.5 NNE 5 9 1015.8 - 0.0 - Partly cloudy - - - - -
20/10:30pm 25.5 N 5 10 1015.9 - 0.0 - Partly cloudy - - - - -
20/10:00pm 25.6 NNE 6 11 1015.9 - 0.0 - Partly cloudy - - - - -
20/09:30pm 25.5 N 6 9 1015.7 - 0.0 - Partly cloudy - - - - -
20/09:00pm 25.5 N 6 10 1015.4 R 0.0 - Mostly clear - - - - -
20/08:30pm 25.6 N 6 11 1015.3 - 0.0 - Partly cloudy - - - - -
20/08:00pm 25.6 NNE 6 10 1015.0 - 0.0 - - - - - - -
20/07:30pm 25.7 N 7 13 1014.5 - 0.0 - Partly cloudy - - - - -
20/07:00pm 25.7 NNE 6 13 1014.0 - 0.0 - - - - - - -
20/06:30pm 26.0 NNE 7 13 1013.6 - 0.0 - - - - - - -
20/06:00pm 26.6 NNE 7 14 1013.2 R 0.0 - - - - - - -
20/05:30pm 27.2 NNE 8 14 1012.9 - 0.0 - - - - - - -
20/05:00pm 28.1 NNE 7 14 1012.5 - 0.0 - - 10 - - - -
20/04:30pm 28.6 NNE 8 14 1012.2 - 0.0 - - 10 - - - -
20/04:00pm 29.7 NNE 8 17 1012.2 - 0.0 - - 10 - - - -
20/03:30pm 30.4 N 9 16 1012.3 - 0.0 - Mostly clear 10 - - - -
20/03:00pm 30.6 NNE 9 14 1012.5 F 0.0 Fine Mostly clear 25 - - - -
20/02:30pm 30.7 N 12 18 1012.6 - 0.0 - Mostly clear 10 - - - -
20/02:00pm 31.0 N 9 15 1013.0 - 0.0 - Mostly clear 10 - - - -
20/01:30pm 30.4 N 11 18 1013.3 - 0.0 - Mostly clear 10 - - - -
20/01:00pm 30.8 N 11 18 1013.6 - 0.0 - Mostly clear 10 - - - -
20/12:30pm 31.0 N 9 16 1014.2 - 0.0 - Mostly clear 10 - - - -
20/12:00pm 32.0 N 9 15 1014.8 F 0.0 Fine Mostly clear 20 - - - -
20/11:30am 31.7 N 7 14 1015.4 - 0.0 - Mostly clear 10 - - - -
20/11:00am 31.5 NNE 8 13 1015.6 - 0.0 - Mostly clear 10 - - - -
20/10:30am 31.2 NNE 8 13 1016.1 - 0.0 - Mostly clear 10 - - - -
20/10:00am 30.5 NNE 8 13 1016.3 - 0.0 - Mostly clear 10 - - - -
20/09:30am 30.1 NNE 8 12 1016.6 - 0.0 - Mostly clear 10 - - - -
20/09:00am 30.3 NNE 8 13 1016.6 F 0.0 Fine Mostly clear 25 - - - -
20/08:30am 28.6 N 9 14 1016.6 - 0.0 - Partly cloudy 10 - - - -
20/08:00am 28.5 NNE 8 14 1016.6 - 0.0 - Mostly clear 10 - - - -
20/07:30am 27.8 NNE 8 12 1016.4 - 0.0 - Mostly clear 10 - - - -
20/07:00am 27.2 NNE 7 12 1016.2 - 0.0 - Mostly clear 10 - - - -
20/06:30am 26.0 NNE 7 13 1015.8 - 0.0 - Mostly clear 10 - - - -
20/06:00am 25.2 NNE 6 9 1015.7 F 0.0 Fine Partly cloudy 25 - - - -
20/05:30am 25.1 NNE 7 12 1015.4 - 0.0 - Partly cloudy - - - - -
20/05:00am 25.3 NNE 8 14 1014.9 - 0.0 - Partly cloudy - - - - -
20/04:30am 25.0 NNE 7 15 1014.7 - 0.0 - Partly cloudy - - - - -
20/04:00am 25.0 NE 7 12 1014.4 - 0.0 - - - - - - -
20/03:30am 24.9 NNE 7 11 1014.5 - 0.0 - - - - - - -
20/03:00am 24.9 NE 7 13 1014.6 - 0.0 - Mostly clear - - - - -

Other Formats:

Comma delimited format used in spreadsheet applications
http://www.bom.gov.au/fwo/IDQ60701/IDQ60701.94367.axf

JavaScript Object Notation format (JSON) in row-major order
http://www.bom.gov.au/fwo/IDQ60701/IDQ60701.94367.json